Barbara P — CQHY — position and weather

sailwx.info

Track history (hours):
 
Tides and Currents Weather Stations Pressure Air Temp Water Temp Dewpoint Dewpoint Depression Visibility Wind Speed Wind Dir Waves Ship Positions

Barbara P

Last reported at 2017-Nov-19 14:50 UTC. Time now 2017-Nov-20 12:12 UTC.
Position N 36°00' W 005°23'.

Length 139 m; draft 9.1 m.

Type: Ship (hazmat cat A). MMSI: 255805600.

Date/timePositionNaut miles runAvg speedWind from/ knotsBaromVisibWave heightAir tempDewpointWater temp
2017-Nov-19 14:50N 36°00' W 005°23'516.2
2017-Nov-19 14:30N 36°02' W 005°17'21016.2
2017-Nov-19 01:32N 37°09' W 001°09'617.2
2017-Nov-19 01:12N 37°13' W 001°04'317.2
2017-Nov-19 01:00N 37°16' W 001°01'917.1
2017-Nov-19 00:29N 37°21' W 000°52'816.9
2017-Nov-19 00:00N 37°27' W 000°44'816.8
2017-Nov-18 23:30N 37°32' W 000°37'816.0
2017-Nov-18 23:00N 37°39' W 000°31'916.7
2017-Nov-18 22:29N 37°48' W 000°29'816.5
2017-Nov-18 22:00N 37°55' W 000°27'816.3
2017-Nov-18 21:30N 38°03' W 000°24'205 8.4
2017-Nov-17 21:14N 40°57' E 001°57'616.9
2017-Nov-17 20:55N 41°01' E 002°01'1216.6
2017-Nov-17 20:13N 41°12' E 002°07'  
2017-Nov-15 04:28N 41°06' E 002°04'222 9.0
2017-Nov-14 03:43N 37°56' W 000°25'715.2
2017-Nov-14 03:17N 37°49' W 000°26'415.4
2017-Nov-14 03:00N 37°45' W 000°27'815.3
2017-Nov-14 02:31N 37°38' W 000°28'814.6
2017-Nov-14 01:59N 37°31' W 000°33'715.1
2017-Nov-14 01:30N 37°26' W 000°40'815.0
2017-Nov-14 01:00N 37°21' W 000°47'815.1
2017-Nov-14 00:27N 37°16' W 000°55'714.9
2017-Nov-13 23:59N 37°11' W 001°02'36116.3
2017-Nov-13 01:52N 34°35' W 007°43'617.5
2017-Nov-13 01:30N 34°31' W 007°49'17417.0
2017-Nov-12 15:15N 32°39' W 010°29'12516.6
2017-Nov-12 07:42N 31°18' W 012°21'2116.1
2017-Nov-12 06:22N 31°04' W 012°40'616.0
2017-Nov-12 05:59N 30°60' W 012°45'816.0
2017-Nov-12 05:29N 30°55' W 012°52'815.9
2017-Nov-12 05:00N 30°50' W 012°59'815.9
2017-Nov-12 04:30N 30°44' W 013°06'815.9
2017-Nov-12 03:59N 30°39' W 013°13'815.9
2017-Nov-12 03:31N 30°34' W 013°20'816.1
2017-Nov-12 03:00N 30°29' W 013°27'815.7
2017-Nov-12 02:30N 30°24' W 013°34'815.5
2017-Nov-12 02:00N 30°19' W 013°41'815.3
2017-Nov-12 01:30N 30°14' W 013°48'915.5
2017-Nov-12 00:56N 30°08' W 013°56'715.3
2017-Nov-12 00:30N 30°04' W 014°01'1115.3
2017-Nov-11 23:48N 29°57' W 014°11'515.4
2017-Nov-11 23:30N 29°54' W 014°15'815.3
2017-Nov-11 23:00N 29°49' W 014°22'815.5
2017-Nov-11 22:30N 29°44' W 014°28'815.3
2017-Nov-11 22:00N 29°39' W 014°35'815.6
2017-Nov-11 21:30N 29°34' W 014°42'815.5
2017-Nov-11 21:00N 29°29' W 014°48'815.5
2017-Nov-11 20:30N 29°24' W 014°55'815.7
2017-Nov-11 20:00N 29°18' W 015°02'815.5
2017-Nov-11 19:30N 29°13' W 015°09'815.2
2017-Nov-11 19:00N 29°08' W 015°15'714.9
2017-Nov-11 18:30N 29°04' W 015°22'815.4
2017-Nov-11 18:00N 28°59' W 015°29'815.2
2017-Nov-11 17:30N 28°54' W 015°36'815.3
2017-Nov-11 17:00N 28°49' W 015°42'815.1
2017-Nov-11 16:30N 28°44' W 015°49'715.1
2017-Nov-11 16:00N 28°39' W 015°55'815.5
2017-Nov-11 15:29N 28°34' W 016°02'816.3
2017-Nov-11 15:00N 28°29' W 016°09'4 6.7
2017-Nov-11 14:28N 28°29' W 016°13'0 0.0
2017-Nov-11 13:58N 28°29' W 016°13'0 0.0
2017-Nov-11 13:25N 28°29' W 016°13'0 0.0
2017-Nov-11 12:58N 28°29' W 016°13'0 0.0
2017-Nov-11 12:28N 28°29' W 016°13'0 0.0
2017-Nov-11 11:58N 28°29' W 016°13'0 0.0
2017-Nov-11 11:28N 28°29' W 016°13'0 0.0
2017-Nov-11 10:58N 28°29' W 016°13'0 0.0
2017-Nov-11 10:19N 28°29' W 016°13'0 0.0
2017-Nov-11 09:52N 28°29' W 016°13'0 0.0
2017-Nov-11 08:58N 28°29' W 016°13'0 0.0
2017-Nov-11 08:28N 28°29' W 016°13'0 0.0
2017-Nov-11 07:52N 28°29' W 016°13'0 0.0
2017-Nov-11 07:04N 28°29' W 016°13'0 0.0
2017-Nov-11 06:37N 28°29' W 016°13'0 0.0
2017-Nov-11 06:16N 28°29' W 016°13'0 0.0
2017-Nov-11 05:40N 28°29' W 016°13'0 0.0
2017-Nov-11 05:22N 28°29' W 016°13'0 0.5
2017-Nov-11 05:00N 28°29' W 016°14'4 6.0
2017-Nov-11 04:24N 28°29' W 016°09'510.9
2017-Nov-11 03:56N 28°31' W 016°04'511.3
2017-Nov-11 03:30N 28°34' W 015°59'611.6
2017-Nov-11 03:00N 28°36' W 015°53'611.5
2017-Nov-11 02:30N 28°38' W 015°47'611.5
2017-Nov-11 02:00N 28°39' W 015°41'611.7
2017-Nov-11 01:30N 28°40' W 015°34'611.6
2017-Nov-11 01:00N 28°40' W 015°28'611.6
2017-Nov-11 00:30N 28°41' W 015°21'611.6
2017-Nov-11 00:00N 28°41' W 015°15'611.6
2017-Nov-10 23:30N 28°42' W 015°08'611.7
2017-Nov-10 23:00N 28°42' W 015°01'611.9
2017-Nov-10 22:30N 28°43' W 014°55'611.9
2017-Nov-10 22:00N 28°43' W 014°48'611.6
2017-Nov-10 21:30N 28°44' W 014°41'611.3
2017-Nov-10 21:00N 28°44' W 014°35'611.1
2017-Nov-10 20:30N 28°45' W 014°28'611.4
2017-Nov-10 20:00N 28°46' W 014°22'711.5
2017-Nov-10 19:26N 28°46' W 014°14'511.1
2017-Nov-10 19:00N 28°47' W 014°09'510.9
2017-Nov-10 18:31N 28°47' W 014°03'711.4
2017-Nov-10 17:56N 28°48' W 013°56'512.3
2017-Nov-10 17:30N 28°48' W 013°50'611.9
2017-Nov-10 17:00N 28°50' W 013°43'611.8
2017-Nov-10 16:30N 28°53' W 013°37'611.2
2017-Nov-10 15:59N 28°57' W 013°32'2 1.2
2017-Nov-10 14:36N 28°58' W 013°32'0 0.0
2017-Nov-10 14:24N 28°58' W 013°32'0 0.0
2017-Nov-10 13:48N 28°58' W 013°32'0 0.0
2017-Nov-10 13:09N 28°58' W 013°32'0 0.0
2017-Nov-10 13:00N 28°58' W 013°32'0 0.0
2017-Nov-10 12:30N 28°58' W 013°32'0 0.0
2017-Nov-10 12:00N 28°58' W 013°32'0 0.0
2017-Nov-10 11:24N 28°58' W 013°32'0 0.0
2017-Nov-10 10:21N 28°58' W 013°32'0 0.0
2017-Nov-10 09:57N 28°58' W 013°32'0 0.0
2017-Nov-10 09:12N 28°58' W 013°32'0 0.0
2017-Nov-10 08:57N 28°58' W 013°32'0 0.0
2017-Nov-10 08:27N 28°58' W 013°32'0 0.0
2017-Nov-10 08:00N 28°58' W 013°32'0 0.7
2017-Nov-10 07:30N 28°58' W 013°32'4 7.9
2017-Nov-10 07:00N 28°55' W 013°35'713.8
2017-Nov-10 06:31N 28°51' W 013°41'713.3
2017-Nov-10 06:01N 28°49' W 013°48'612.4
2017-Nov-10 05:31N 28°48' W 013°55'713.2
2017-Nov-10 05:01N 28°48' W 014°03'712.8
2017-Nov-10 04:29N 28°44' W 014°10'612.5
2017-Nov-10 04:01N 28°41' W 014°15'612.2
2017-Nov-10 03:31N 28°39' W 014°22'612.1
2017-Nov-10 03:01N 28°36' W 014°28'711.8
2017-Nov-10 02:25N 28°33' W 014°35'511.6
2017-Nov-10 02:01N 28°31' W 014°40'611.8
2017-Nov-10 01:31N 28°28' W 014°46'611.4
2017-Nov-10 01:00N 28°26' W 014°52'611.3
2017-Nov-10 00:31N 28°23' W 014°57'611.1
2017-Nov-10 00:00N 28°20' W 015°03'511.0
2017-Nov-09 23:30N 28°17' W 015°08'611.4
2017-Nov-09 23:00N 28°13' W 015°13'611.4
2017-Nov-09 22:30N 28°10' W 015°18'611.6
2017-Nov-09 22:00N 28°07' W 015°23'2 3.8
2017-Nov-09 21:30N 28°08' W 015°25'0 0.0
2017-Nov-09 20:57N 28°08' W 015°25'0 0.0
2017-Nov-09 20:30N 28°08' W 015°25'0 0.0
2017-Nov-09 20:00N 28°08' W 015°25'0 0.0
2017-Nov-09 19:30N 28°08' W 015°25'0 0.0
2017-Nov-09 19:00N 28°08' W 015°25'0 0.0
2017-Nov-09 18:30N 28°08' W 015°25'0 0.0
2017-Nov-09 18:00N 28°08' W 015°25'0 0.0
2017-Nov-09 17:30N 28°08' W 015°25'0 0.0
2017-Nov-09 17:00N 28°08' W 015°25'0 0.0
2017-Nov-09 16:30N 28°08' W 015°25'0 0.0
2017-Nov-09 16:00N 28°08' W 015°25'0 0.0
2017-Nov-09 15:30N 28°08' W 015°25'0 0.0
2017-Nov-09 14:51N 28°08' W 015°25'  
Track history (hours):
 
Tides and Currents Weather Stations Pressure Air Temp Water Temp Dewpoint Dewpoint Depression Visibility Wind Speed Wind Dir Waves Ship Positions

Barbara P

Last reported at 2017-Nov-19 14:50 UTC. Time now 2017-Nov-20 12:12 UTC.
Position N 36°00' W 005°23'.

Length 139 m; draft 9.1 m.

Type: Ship (hazmat cat A). MMSI: 255805600.

Date/timePositionNaut miles runAvg speedWind from/ knotsBaromVisibWave heightAir tempDewpointWater temp
2017-Nov-19 14:50N 36°00' W 005°23'516.2
2017-Nov-19 14:30N 36°02' W 005°17'21016.2
2017-Nov-19 01:32N 37°09' W 001°09'617.2
2017-Nov-19 01:12N 37°13' W 001°04'317.2
2017-Nov-19 01:00N 37°16' W 001°01'917.1
2017-Nov-19 00:29N 37°21' W 000°52'816.9
2017-Nov-19 00:00N 37°27' W 000°44'816.8
2017-Nov-18 23:30N 37°32' W 000°37'816.0
2017-Nov-18 23:00N 37°39' W 000°31'916.7
2017-Nov-18 22:29N 37°48' W 000°29'816.5
2017-Nov-18 22:00N 37°55' W 000°27'816.3
2017-Nov-18 21:30N 38°03' W 000°24'205 8.4
2017-Nov-17 21:14N 40°57' E 001°57'616.9
2017-Nov-17 20:55N 41°01' E 002°01'1216.6
2017-Nov-17 20:13N 41°12' E 002°07'  
2017-Nov-15 04:28N 41°06' E 002°04'222 9.0
2017-Nov-14 03:43N 37°56' W 000°25'715.2
2017-Nov-14 03:17N 37°49' W 000°26'415.4
2017-Nov-14 03:00N 37°45' W 000°27'815.3
2017-Nov-14 02:31N 37°38' W 000°28'814.6
2017-Nov-14 01:59N 37°31' W 000°33'715.1
2017-Nov-14 01:30N 37°26' W 000°40'815.0
2017-Nov-14 01:00N 37°21' W 000°47'815.1
2017-Nov-14 00:27N 37°16' W 000°55'714.9
2017-Nov-13 23:59N 37°11' W 001°02'36116.3
2017-Nov-13 01:52N 34°35' W 007°43'617.5
2017-Nov-13 01:30N 34°31' W 007°49'17417.0
2017-Nov-12 15:15N 32°39' W 010°29'12516.6
2017-Nov-12 07:42N 31°18' W 012°21'2116.1
2017-Nov-12 06:22N 31°04' W 012°40'616.0
2017-Nov-12 05:59N 30°60' W 012°45'816.0
2017-Nov-12 05:29N 30°55' W 012°52'815.9
2017-Nov-12 05:00N 30°50' W 012°59'815.9
2017-Nov-12 04:30N 30°44' W 013°06'815.9
2017-Nov-12 03:59N 30°39' W 013°13'815.9
2017-Nov-12 03:31N 30°34' W 013°20'816.1
2017-Nov-12 03:00N 30°29' W 013°27'815.7
2017-Nov-12 02:30N 30°24' W 013°34'815.5
2017-Nov-12 02:00N 30°19' W 013°41'815.3
2017-Nov-12 01:30N 30°14' W 013°48'915.5
2017-Nov-12 00:56N 30°08' W 013°56'715.3
2017-Nov-12 00:30N 30°04' W 014°01'1115.3
2017-Nov-11 23:48N 29°57' W 014°11'515.4
2017-Nov-11 23:30N 29°54' W 014°15'815.3
2017-Nov-11 23:00N 29°49' W 014°22'815.5
2017-Nov-11 22:30N 29°44' W 014°28'815.3
2017-Nov-11 22:00N 29°39' W 014°35'815.6
2017-Nov-11 21:30N 29°34' W 014°42'815.5
2017-Nov-11 21:00N 29°29' W 014°48'815.5
2017-Nov-11 20:30N 29°24' W 014°55'815.7
2017-Nov-11 20:00N 29°18' W 015°02'815.5
2017-Nov-11 19:30N 29°13' W 015°09'815.2
2017-Nov-11 19:00N 29°08' W 015°15'714.9
2017-Nov-11 18:30N 29°04' W 015°22'815.4
2017-Nov-11 18:00N 28°59' W 015°29'815.2
2017-Nov-11 17:30N 28°54' W 015°36'815.3
2017-Nov-11 17:00N 28°49' W 015°42'815.1
2017-Nov-11 16:30N 28°44' W 015°49'715.1
2017-Nov-11 16:00N 28°39' W 015°55'815.5
2017-Nov-11 15:29N 28°34' W 016°02'816.3
2017-Nov-11 15:00N 28°29' W 016°09'4 6.7
2017-Nov-11 14:28N 28°29' W 016°13'0 0.0
2017-Nov-11 13:58N 28°29' W 016°13'0 0.0
2017-Nov-11 13:25N 28°29' W 016°13'0 0.0
2017-Nov-11 12:58N 28°29' W 016°13'0 0.0
2017-Nov-11 12:28N 28°29' W 016°13'0 0.0
2017-Nov-11 11:58N 28°29' W 016°13'0 0.0
2017-Nov-11 11:28N 28°29' W 016°13'0 0.0
2017-Nov-11 10:58N 28°29' W 016°13'0 0.0
2017-Nov-11 10:19N 28°29' W 016°13'0 0.0
2017-Nov-11 09:52N 28°29' W 016°13'0 0.0
2017-Nov-11 08:58N 28°29' W 016°13'0 0.0
2017-Nov-11 08:28N 28°29' W 016°13'0 0.0
2017-Nov-11 07:52N 28°29' W 016°13'0 0.0
2017-Nov-11 07:04N 28°29' W 016°13'0 0.0
2017-Nov-11 06:37N 28°29' W 016°13'0 0.0
2017-Nov-11 06:16N 28°29' W 016°13'0 0.0
2017-Nov-11 05:40N 28°29' W 016°13'0 0.0
2017-Nov-11 05:22N 28°29' W 016°13'0 0.5
2017-Nov-11 05:00N 28°29' W 016°14'4 6.0
2017-Nov-11 04:24N 28°29' W 016°09'510.9
2017-Nov-11 03:56N 28°31' W 016°04'511.3
2017-Nov-11 03:30N 28°34' W 015°59'611.6
2017-Nov-11 03:00N 28°36' W 015°53'611.5
2017-Nov-11 02:30N 28°38' W 015°47'611.5
2017-Nov-11 02:00N 28°39' W 015°41'611.7
2017-Nov-11 01:30N 28°40' W 015°34'611.6
2017-Nov-11 01:00N 28°40' W 015°28'611.6
2017-Nov-11 00:30N 28°41' W 015°21'611.6
2017-Nov-11 00:00N 28°41' W 015°15'611.6
2017-Nov-10 23:30N 28°42' W 015°08'611.7
2017-Nov-10 23:00N 28°42' W 015°01'611.9
2017-Nov-10 22:30N 28°43' W 014°55'611.9
2017-Nov-10 22:00N 28°43' W 014°48'611.6
2017-Nov-10 21:30N 28°44' W 014°41'611.3
2017-Nov-10 21:00N 28°44' W 014°35'611.1
2017-Nov-10 20:30N 28°45' W 014°28'611.4
2017-Nov-10 20:00N 28°46' W 014°22'711.5
2017-Nov-10 19:26N 28°46' W 014°14'511.1
2017-Nov-10 19:00N 28°47' W 014°09'510.9
2017-Nov-10 18:31N 28°47' W 014°03'711.4
2017-Nov-10 17:56N 28°48' W 013°56'512.3
2017-Nov-10 17:30N 28°48' W 013°50'611.9
2017-Nov-10 17:00N 28°50' W 013°43'611.8
2017-Nov-10 16:30N 28°53' W 013°37'611.2
2017-Nov-10 15:59N 28°57' W 013°32'2 1.2
2017-Nov-10 14:36N 28°58' W 013°32'0 0.0
2017-Nov-10 14:24N 28°58' W 013°32'0 0.0
2017-Nov-10 13:48N 28°58' W 013°32'0 0.0
2017-Nov-10 13:09N 28°58' W 013°32'0 0.0
2017-Nov-10 13:00N 28°58' W 013°32'0 0.0
2017-Nov-10 12:30N 28°58' W 013°32'0 0.0
2017-Nov-10 12:00N 28°58' W 013°32'0 0.0
2017-Nov-10 11:24N 28°58' W 013°32'0 0.0
2017-Nov-10 10:21N 28°58' W 013°32'0 0.0
2017-Nov-10 09:57N 28°58' W 013°32'0 0.0
2017-Nov-10 09:12N 28°58' W 013°32'0 0.0
2017-Nov-10 08:57N 28°58' W 013°32'0 0.0
2017-Nov-10 08:27N 28°58' W 013°32'0 0.0
2017-Nov-10 08:00N 28°58' W 013°32'0 0.7
2017-Nov-10 07:30N 28°58' W 013°32'4 7.9
2017-Nov-10 07:00N 28°55' W 013°35'713.8
2017-Nov-10 06:31N 28°51' W 013°41'713.3
2017-Nov-10 06:01N 28°49' W 013°48'612.4
2017-Nov-10 05:31N 28°48' W 013°55'713.2
2017-Nov-10 05:01N 28°48' W 014°03'712.8
2017-Nov-10 04:29N 28°44' W 014°10'612.5
2017-Nov-10 04:01N 28°41' W 014°15'612.2
2017-Nov-10 03:31N 28°39' W 014°22'612.1
2017-Nov-10 03:01N 28°36' W 014°28'711.8
2017-Nov-10 02:25N 28°33' W 014°35'511.6
2017-Nov-10 02:01N 28°31' W 014°40'611.8
2017-Nov-10 01:31N 28°28' W 014°46'611.4
2017-Nov-10 01:00N 28°26' W 014°52'611.3
2017-Nov-10 00:31N 28°23' W 014°57'611.1
2017-Nov-10 00:00N 28°20' W 015°03'511.0
2017-Nov-09 23:30N 28°17' W 015°08'611.4
2017-Nov-09 23:00N 28°13' W 015°13'611.4
2017-Nov-09 22:30N 28°10' W 015°18'611.6
2017-Nov-09 22:00N 28°07' W 015°23'2 3.8
2017-Nov-09 21:30N 28°08' W 015°25'0 0.0
2017-Nov-09 20:57N 28°08' W 015°25'0 0.0
2017-Nov-09 20:30N 28°08' W 015°25'0 0.0
2017-Nov-09 20:00N 28°08' W 015°25'0 0.0
2017-Nov-09 19:30N 28°08' W 015°25'0 0.0
2017-Nov-09 19:00N 28°08' W 015°25'0 0.0
2017-Nov-09 18:30N 28°08' W 015°25'0 0.0
2017-Nov-09 18:00N 28°08' W 015°25'0 0.0
2017-Nov-09 17:30N 28°08' W 015°25'0 0.0
2017-Nov-09 17:00N 28°08' W 015°25'0 0.0
2017-Nov-09 16:30N 28°08' W 015°25'0 0.0
2017-Nov-09 16:00N 28°08' W 015°25'0 0.0
2017-Nov-09 15:30N 28°08' W 015°25'0 0.0
2017-Nov-09 14:51N 28°08' W 015°25'  

Dump ship's entire track history